Time;durP1;ratioP1;P1;durP2;ratioP2;P2;SDS_P1;SDS_P2;PMS_P1;PMS_P2;Temp;Humidity;BMP_temperature;BMP_pressure;BME280_temperature;BME280_humidity;BME280_pressure;Samples;Min_cycle;Max_cycle;Signal;HPM_P1;HPM_P2
2020/12/13 00:00:34;;;;;;;;;;;;;;;5.08;81.76;99245.28;5049373;28;19935;-71
2020/12/13 00:03:01;;;;;;;;;;;;;;;5.06;81.38;99244.66;5065524;28;19939;-71
2020/12/13 00:05:27;;;;;;;;;;;;;;;5.08;81.48;99242.59;5067093;28;20303;-71
2020/12/13 00:07:54;;;;;;;;;;;;;;;5.08;81.93;99248.00;5016959;28;19925;-71
2020/12/13 00:10:20;;;;;;;;;;;;;;;5.11;81.95;99255.69;5050762;28;19947;-71
2020/12/13 00:12:46;;;;;;;;;;;;;;;5.08;82.01;99247.16;5053204;28;19925;-72
2020/12/13 00:15:13;;;;;;;;;;;;;;;5.09;81.74;99257.75;5049900;28;19925;-71
2020/12/13 00:17:39;;;;;;;;;;;;;;;5.13;81.68;99253.63;5052295;28;19924;-71
2020/12/13 00:20:06;;;;;;;;;;;;;;;5.14;81.41;99257.97;5053379;28;19925;-72
2020/12/13 00:22:32;;;;;;;;;;;;;;;5.17;81.30;99251.34;5020631;28;19931;-71
2020/12/13 00:24:58;;;;;;;;;;;;;;;5.17;80.79;99257.56;5037136;28;20465;-71
2020/12/13 00:27:24;;;;;;;;;;;;;;;5.19;81.19;99255.50;5051256;28;19932;-71
2020/12/13 00:29:50;;;;;;;;;;;;;;;5.13;81.20;99260.88;5068641;28;20405;-71
2020/12/13 00:32:17;;;;;;;;;;;;;;;5.07;82.28;99262.53;5052551;28;19958;-72
2020/12/13 00:34:43;;;;;;;;;;;;;;;5.19;81.73;99255.50;5036254;28;19931;-69
2020/12/13 00:37:09;;;;;;;;;;;;;;;5.18;81.06;99259.25;5048385;28;19925;-69
2020/12/13 00:39:38;;;;;;;;;;;;;;;5.17;80.79;99265.69;5039646;28;19925;-69
2020/12/13 00:42:05;;;;;;;;;;;;;;;5.11;81.74;99271.91;5062592;28;19925;-69
2020/12/13 00:44:31;;;;;;;;;;;;;;;5.11;81.95;99269.19;5057358;28;20500;-69
2020/12/13 00:46:57;;;;;;;;;;;;;;;5.08;81.58;99269.59;5042505;28;19967;-69
2020/12/13 00:49:24;;;;;;;;;;;;;;;5.08;81.46;99268.75;5016741;28;19929;-72
2020/12/13 00:51:50;;;;;;;;;;;;;;;5.09;81.88;99270.44;5032000;28;19925;-70
2020/12/13 00:54:16;;;;;;;;;;;;;;;5.09;81.72;99276.66;5030964;28;19936;-72
2020/12/13 00:56:43;;;;;;;;;;;;;;;5.10;81.88;99283.72;5013920;28;19932;-69
2020/12/13 00:59:09;;;;;;;;;;;;;;;5.09;81.41;99282.06;5032024;28;19924;-69
2020/12/13 01:01:36;;;;;;;;;;;;;;;5.11;81.61;99290.78;5029567;28;19953;-69
2020/12/13 01:04:03;;;;;;;;;;;;;;;5.09;81.83;99292.03;5048421;28;19929;-69
2020/12/13 01:06:30;;;;;;;;;;;;;;;5.13;81.64;99293.28;5032666;28;20040;-69
2020/12/13 01:08:56;;;;;;;;;;;;;;;5.13;81.12;99294.13;5033395;28;20307;-69
2020/12/13 01:11:26;;;;;;;;;;;;;;;5.17;81.07;99294.56;5053098;28;19929;-69
2020/12/13 01:13:52;;;;;;;;;;;;;;;5.16;81.26;99296.41;5052226;28;19982;-70
2020/12/13 01:16:18;;;;;;;;;;;;;;;5.18;81.00;99302.44;5049086;28;20387;-70
2020/12/13 01:18:45;;;;;;;;;;;;;;;5.14;81.33;99306.59;5068805;28;19967;-70
2020/12/13 01:21:30;;;;;;;;;;;;;;;5.19;81.23;99309.53;5067408;28;20476;-70
2020/12/13 01:23:56;;;;;;;;;;;;;;;5.19;80.34;99308.69;5023464;28;19931;-70
2020/12/13 01:26:24;;;;;;;;;;;;;;;5.18;81.41;99309.72;5068118;28;20011;-70
2020/12/13 01:28:51;;;;;;;;;;;;;;;5.18;81.25;99317.81;5050738;28;20319;-70
2020/12/13 01:31:17;;;;;;;;;;;;;;;5.20;81.33;99316.56;5048279;28;19929;-70
2020/12/13 01:33:44;;;;;;;;;;;;;;;5.21;81.11;99320.91;5052667;28;19963;-70
2020/12/13 01:36:11;;;;;;;;;;;;;;;5.11;81.14;99320.50;5068288;28;19933;-70
2020/12/13 01:38:38;;;;;;;;;;;;;;;5.17;81.08;99319.69;5051286;28;19925;-70
2020/12/13 01:41:05;;;;;;;;;;;;;;;5.21;80.57;99323.63;5051532;28;20375;-70
2020/12/13 01:43:31;;;;;;;;;;;;;;;5.24;80.82;99325.91;5052642;28;19925;-70
2020/12/13 01:45:57;;;;;;;;;;;;;;;5.25;80.91;99330.28;5051624;28;19928;-70
2020/12/13 01:48:24;;;;;;;;;;;;;;;5.22;80.96;99329.84;5032615;28;19925;-70
2020/12/13 01:51:07;;;;;;;;;;;;;;;5.24;81.40;99342.13;5051442;28;19937;-70
2020/12/13 01:53:33;;;;;;;;;;;;;;;5.13;81.40;99331.09;5060339;28;19928;-70
2020/12/13 01:56:00;;;;;;;;;;;;;;;5.26;81.18;99339.22;5036968;28;19940;-70
2020/12/13 01:58:29;;;;;;;;;;;;;;;5.28;80.45;99346.09;5062450;28;19931;-70
2020/12/13 02:00:56;;;;;;;;;;;;;;;5.24;80.43;99347.53;5051082;28;20016;-70
2020/12/13 02:03:23;;;;;;;;;;;;;;;5.27;80.63;99351.69;5016430;28;19980;-70
2020/12/13 02:05:58;;;;;;;;;;;;;;;5.28;80.55;99350.66;5035057;28;20310;-70
2020/12/13 02:08:24;;;;;;;;;;;;;;;5.28;80.57;99356.91;5017642;28;19941;-70
2020/12/13 02:10:51;;;;;;;;;;;;;;;5.25;80.73;99354.59;5044917;28;19925;-70
2020/12/13 02:13:17;;;;;;;;;;;;;;;5.24;80.47;99355.63;5048261;28;19925;-70
2020/12/13 02:15:44;;;;;;;;;;;;;;;5.27;81.10;99360.63;5050272;28;19925;-69
2020/12/13 02:18:10;;;;;;;;;;;;;;;5.29;80.36;99357.72;5050924;28;19924;-70
2020/12/13 02:20:36;;;;;;;;;;;;;;;5.28;80.36;99362.28;5067113;28;19929;-70
2020/12/13 02:23:06;;;;;;;;;;;;;;;5.29;80.43;99358.56;5067468;28;20317;-70
2020/12/13 02:25:32;;;;;;;;;;;;;;;5.20;80.47;99353.56;5051091;28;19955;-70
2020/12/13 02:28:00;;;;;;;;;;;;;;;5.29;80.12;99358.56;5046567;28;20109;-72
2020/12/13 02:30:26;;;;;;;;;;;;;;;5.27;79.82;99367.91;5066732;28;20051;-70
2020/12/13 02:32:53;;;;;;;;;;;;;;;5.27;80.74;99360.63;5066991;28;19925;-70
2020/12/13 02:35:19;;;;;;;;;;;;;;;5.28;79.81;99362.28;5065170;28;19924;-70
2020/12/13 02:37:45;;;;;;;;;;;;;;;5.29;79.69;99361.25;5047463;28;19925;-70
2020/12/13 02:40:11;;;;;;;;;;;;;;;5.28;80.14;99367.69;5045972;28;19931;-70
2020/12/13 02:42:38;;;;;;;;;;;;;;;5.28;79.88;99373.09;5067271;28;19935;-70
2020/12/13 02:45:04;;;;;;;;;;;;;;;5.31;79.87;99371.88;5051823;28;19924;-70
2020/12/13 02:47:30;;;;;;;;;;;;;;;5.13;80.80;99380.53;5046689;28;19932;-70
2020/12/13 02:49:56;;;;;;;;;;;;;;;5.16;80.89;99379.31;5042279;28;19928;-70
2020/12/13 02:52:22;;;;;;;;;;;;;;;5.04;81.39;99377.19;5046210;28;19929;-70
2020/12/13 02:54:49;;;;;;;;;;;;;;;5.07;80.58;99375.09;5031656;28;19971;-70
2020/12/13 02:57:15;;;;;;;;;;;;;;;5.24;79.93;99376.41;5042163;28;19965;-70
2020/12/13 02:59:41;;;;;;;;;;;;;;;5.37;79.53;99381.88;5048545;28;19939;-70
2020/12/13 03:02:07;;;;;;;;;;;;;;;5.33;78.96;99386.84;5036661;28;20011;-70
2020/12/13 03:04:35;;;;;;;;;;;;;;;5.36;78.80;99375.63;5032644;28;19925;-70
2020/12/13 03:07:01;;;;;;;;;;;;;;;5.36;78.72;99386.44;5030860;28;20015;-70
2020/12/13 03:09:27;;;;;;;;;;;;;;;5.35;79.34;99381.22;5031285;28;20399;-70
2020/12/13 03:11:53;;;;;;;;;;;;;;;5.32;79.53;99382.47;5034620;28;19929;-70
2020/12/13 03:14:21;;;;;;;;;;;;;;;5.31;79.50;99390.78;5029516;28;20015;-70
2020/12/13 03:16:47;;;;;;;;;;;;;;;5.30;79.16;99399.91;5030436;28;20020;-70
2020/12/13 03:19:13;;;;;;;;;;;;;;;5.30;79.16;99392.63;5046374;28;20007;-70
2020/12/13 03:21:40;;;;;;;;;;;;;;;5.33;79.51;99400.34;5031681;28;19932;-70
2020/12/13 03:24:06;;;;;;;;;;;;;;;5.29;79.20;99393.69;5029336;28;19926;-70
2020/12/13 03:26:32;;;;;;;;;;;;;;;5.30;79.14;99398.03;5017330;28;20299;-70
2020/12/13 03:28:58;;;;;;;;;;;;;;;5.29;79.36;99404.47;5055099;28;19932;-70
2020/12/13 03:31:24;;;;;;;;;;;;;;;5.29;79.55;99407.19;5052099;28;19929;-70
2020/12/13 03:33:51;;;;;;;;;;;;;;;5.30;79.50;99400.75;5057348;28;19925;-70
2020/12/13 03:36:17;;;;;;;;;;;;;;;5.28;79.59;99408.22;5042662;28;19924;-70
2020/12/13 03:38:43;;;;;;;;;;;;;;;5.28;79.87;99410.09;5016885;28;19925;-70
2020/12/13 03:41:09;;;;;;;;;;;;;;;5.21;79.68;99410.06;5048902;28;20421;-70
2020/12/13 03:43:36;;;;;;;;;;;;;;;5.27;79.81;99414.66;5032707;28;20299;-70
2020/12/13 03:46:02;;;;;;;;;;;;;;;5.30;79.45;99413.41;5019292;28;19925;-70
2020/12/13 03:48:30;;;;;;;;;;;;;;;5.28;79.52;99410.91;5058346;28;20129;-70
2020/12/13 03:50:58;;;;;;;;;;;;;;;5.26;78.85;99407.59;5026319;28;21240;-70
2020/12/13 03:53:24;;;;;;;;;;;;;;;5.25;79.23;99408.63;5115771;23;19928;-70
2020/12/13 03:55:51;;;;;;;;;;;;;;;5.27;78.99;99420.06;5031334;28;19971;-70
2020/12/13 03:58:18;;;;;;;;;;;;;;;5.27;79.40;99420.06;5091243;28;19977;-70
2020/12/13 04:00:45;;;;;;;;;;;;;;;5.27;79.09;99425.47;5074090;28;19924;-70
2020/12/13 04:03:12;;;;;;;;;;;;;;;5.21;79.35;99425.41;5073461;28;20352;-70
2020/12/13 04:05:38;;;;;;;;;;;;;;;5.23;79.61;99435.00;5043628;28;19939;-70
2020/12/13 04:08:04;;;;;;;;;;;;;;;5.24;79.92;99444.75;5070510;28;19924;-70
2020/12/13 04:10:30;;;;;;;;;;;;;;;5.24;80.10;99436.66;5084317;28;19924;-70
2020/12/13 04:12:57;;;;;;;;;;;;;;;5.27;80.11;99440.81;5073249;28;19924;-70
2020/12/13 04:15:24;;;;;;;;;;;;;;;5.30;80.06;99443.13;5069711;28;20015;-70
2020/12/13 04:17:51;;;;;;;;;;;;;;;5.25;79.85;99456.41;5079421;28;20337;-69
2020/12/13 04:20:17;;;;;;;;;;;;;;;5.08;80.83;99452.38;5056319;28;19935;-70
2020/12/13 04:22:44;;;;;;;;;;;;;;;5.14;80.56;99447.03;5055727;28;20328;-70
2020/12/13 04:25:10;;;;;;;;;;;;;;;5.14;82.14;99441.63;5080441;28;19924;-70
2020/12/13 04:27:36;;;;;;;;;;;;;;;4.92;84.88;99445.41;5078771;28;19936;-70
2020/12/13 04:30:03;;;;;;;;;;;;;;;5.12;85.29;99443.69;5069686;28;19929;-70
2020/12/13 04:32:30;;;;;;;;;;;;;;;5.08;85.48;99453.22;5053414;28;19931;-69
2020/12/13 04:34:56;;;;;;;;;;;;;;;5.00;85.87;99448.81;5070241;28;19932;-70
2020/12/13 04:37:25;;;;;;;;;;;;;;;4.99;85.86;99447.13;5076598;28;19928;-70
2020/12/13 04:39:51;;;;;;;;;;;;;;;4.95;85.60;99453.13;5062909;28;19924;-70
2020/12/13 04:42:19;;;;;;;;;;;;;;;4.89;85.50;99449.34;5056141;28;19944;-70
2020/12/13 04:44:46;;;;;;;;;;;;;;;4.88;85.83;99452.25;5072436;28;20352;-70
2020/12/13 04:47:15;;;;;;;;;;;;;;;4.86;86.07;99454.31;5075813;28;19929;-70
2020/12/13 04:49:41;;;;;;;;;;;;;;;4.90;85.90;99460.97;5089842;28;19924;-70
2020/12/13 04:52:07;;;;;;;;;;;;;;;4.90;84.94;99460.97;5071812;28;19947;-70
2020/12/13 04:54:33;;;;;;;;;;;;;;;4.93;85.64;99461.41;5059851;28;20316;-70
2020/12/13 04:57:00;;;;;;;;;;;;;;;4.85;85.89;99455.38;5093398;28;19924;-70
2020/12/13 04:59:26;;;;;;;;;;;;;;;4.92;85.53;99457.06;5072970;28;19966;-70
2020/12/13 05:01:53;;;;;;;;;;;;;;;5.05;84.24;99465.25;5075950;28;19924;-70
2020/12/13 05:04:19;;;;;;;;;;;;;;;4.99;85.13;99465.19;5093030;28;19928;-70
2020/12/13 05:06:47;;;;;;;;;;;;;;;4.91;85.08;99465.34;5093035;28;19966;-70
2020/12/13 05:09:14;;;;;;;;;;;;;;;4.92;84.93;99475.13;5057584;28;20215;-70
2020/12/13 05:11:41;;;;;;;;;;;;;;;5.11;84.55;99474.44;5072632;28;19931;-70
2020/12/13 05:14:07;;;;;;;;;;;;;;;5.17;83.56;99473.63;5070013;28;19931;-70
2020/12/13 05:16:33;;;;;;;;;;;;;;;5.17;83.87;99479.03;5092944;28;20376;-70
2020/12/13 05:19:00;;;;;;;;;;;;;;;5.13;83.86;99480.47;5092514;28;19924;-70
2020/12/13 05:21:26;;;;;;;;;;;;;;;5.10;83.73;99475.47;5078976;28;20389;-70
2020/12/13 05:23:53;;;;;;;;;;;;;;;5.09;83.87;99481.88;5078211;28;19939;-70
2020/12/13 05:26:20;;;;;;;;;;;;;;;5.11;84.17;99484.38;5076097;28;19924;-70
2020/12/13 05:28:47;;;;;;;;;;;;;;;5.08;83.78;99479.38;5092738;28;19924;-70
2020/12/13 05:31:18;;;;;;;;;;;;;;;5.09;83.26;99481.06;5092868;28;19924;-70
2020/12/13 05:34:03;;;;;;;;;;;;;;;5.08;83.47;99491.03;5072171;28;20019;-70
2020/12/13 05:36:31;;;;;;;;;;;;;;;5.08;83.02;99493.72;5060518;28;20020;-70
2020/12/13 05:38:58;;;;;;;;;;;;;;;5.01;84.04;99496.38;5092062;28;19924;-70
2020/12/13 05:41:28;;;;;;;;;;;;;;;5.13;82.66;99493.97;5072044;28;19924;-70
2020/12/13 05:51:41;;;;;;;;;;;;;;;5.15;83.05;99504.56;5092403;28;19974;-70
2020/12/13 05:54:22;;;;;;;;;;;;;;;5.15;82.41;99518.06;5075588;28;20404;-70
2020/12/13 05:56:58;;;;;;;;;;;;;;;5.18;82.15;99523.91;5074501;28;19931;-70
2020/12/13 05:59:27;;;;;;;;;;;;;;;5.22;82.22;99514.34;5092029;28;19925;-70
2020/12/13 06:01:53;;;;;;;;;;;;;;;5.19;82.01;99511.25;5078536;28;19931;-70
2020/12/13 06:04:27;;;;;;;;;;;;;;;5.28;81.78;99512.72;5075867;28;20301;-70
2020/12/13 06:06:54;;;;;;;;;;;;;;;5.22;81.82;99514.34;5099189;28;19975;-70
2020/12/13 06:09:47;;;;;;;;;;;;;;;5.26;81.74;99522.91;5081492;28;19924;-70
2020/12/13 06:12:13;;;;;;;;;;;;;;;5.17;81.92;99516.84;5089926;28;19981;-70
2020/12/13 06:14:41;;;;;;;;;;;;;;;5.25;81.55;99516.66;5075341;28;20147;-70
2020/12/13 06:17:07;;;;;;;;;;;;;;;5.32;81.19;99524.81;5075376;28;19924;-70
2020/12/13 06:19:36;;;;;;;;;;;;;;;5.34;80.72;99528.16;5074937;28;20389;-70
2020/12/13 06:22:07;;;;;;;;;;;;;;;5.33;80.28;99530.00;5075035;28;20677;-70
2020/12/13 06:24:33;;;;;;;;;;;;;;;5.37;80.33;99527.75;5091611;28;19924;-70
2020/12/13 06:26:59;;;;;;;;;;;;;;;5.35;79.92;99541.47;5057830;28;19969;-70
2020/12/13 06:29:26;;;;;;;;;;;;;;;5.33;80.65;99540.81;5062299;28;19924;-70
2020/12/13 06:31:52;;;;;;;;;;;;;;;5.34;80.39;99547.06;5074253;28;19924;-70
2020/12/13 06:34:22;;;;;;;;;;;;;;;5.25;81.09;99546.38;5055073;28;19932;-70
2020/12/13 06:36:48;;;;;;;;;;;;;;;5.27;80.69;99555.13;5072738;28;19924;-70
2020/12/13 06:39:15;;;;;;;;;;;;;;;5.31;80.77;99553.69;5074285;28;19977;-70
2020/12/13 06:41:43;;;;;;;;;;;;;;;5.28;80.67;99556.78;5091219;28;19966;-70
2020/12/13 06:44:09;;;;;;;;;;;;;;;5.19;80.68;99552.59;5091245;28;19925;-70
2020/12/13 06:46:39;;;;;;;;;;;;;;;5.22;80.66;99562.97;5090833;28;19930;-70
2020/12/13 06:49:05;;;;;;;;;;;;;;;5.16;80.30;99558.38;5090776;28;19931;-70
2020/12/13 06:51:35;;;;;;;;;;;;;;;5.09;80.97;99564.75;5054173;28;19978;-70
2020/12/13 06:54:03;;;;;;;;;;;;;;;5.21;80.31;99561.31;5037446;28;19925;-70
2020/12/13 06:56:29;;;;;;;;;;;;;;;5.22;80.20;99562.13;5065950;28;19959;-70
2020/12/13 06:59:00;;;;;;;;;;;;;;;5.28;80.45;99564.88;5071054;28;20382;-70
2020/12/13 07:01:27;;;;;;;;;;;;;;;5.32;80.25;99565.31;5082075;28;19928;-70
2020/12/13 07:03:54;;;;;;;;;;;;;;;5.42;79.53;99578.50;5074165;28;19959;-70
2020/12/13 07:06:23;;;;;;;;;;;;;;;5.39;79.23;99575.16;5057430;28;20018;-70
2020/12/13 07:08:53;;;;;;;;;;;;;;;5.39;79.49;99580.56;5074218;28;19959;-70
2020/12/13 07:11:21;;;;;;;;;;;;;;;5.31;80.18;99583.41;5070859;28;19950;-70
2020/12/13 07:13:48;;;;;;;;;;;;;;;5.27;80.20;99587.53;5061658;28;20018;-70
2020/12/13 07:16:36;;;;;;;;;;;;;;;5.39;79.44;99588.66;5054278;28;19928;-70
2020/12/13 07:19:03;;;;;;;;;;;;;;;5.43;79.38;99591.81;5091362;28;20270;-70
2020/12/13 07:21:29;;;;;;;;;;;;;;;5.41;80.10;99595.72;5070493;28;20408;-70
2020/12/13 07:24:00;;;;;;;;;;;;;;;5.48;79.49;99605.56;5064830;28;19931;-70
2020/12/13 07:26:27;;;;;;;;;;;;;;;5.41;79.96;99596.56;5090712;28;19995;-70
2020/12/13 07:28:54;;;;;;;;;;;;;;;5.46;78.84;99599.50;5073963;28;19963;-70
2020/12/13 07:31:20;;;;;;;;;;;;;;;5.45;79.67;99605.94;5090188;28;19924;-70
2020/12/13 07:33:46;;;;;;;;;;;;;;;5.41;79.80;99603.84;5099461;28;20304;-70
2020/12/13 07:36:13;;;;;;;;;;;;;;;5.43;79.37;99612.59;5060320;28;20026;-70
2020/12/13 07:38:39;;;;;;;;;;;;;;;5.55;79.18;99610.97;5067152;28;19924;-70
2020/12/13 07:41:15;;;;;;;;;;;;;;;5.57;78.71;99614.31;5052850;28;20359;-70
2020/12/13 07:43:56;;;;;;;;;;;;;;;5.58;78.98;99618.69;5056928;28;19929;-70
2020/12/13 07:46:22;;;;;;;;;;;;;;;5.47;79.42;99620.09;5070587;28;19928;-70
2020/12/13 07:49:04;;;;;;;;;;;;;;;5.35;80.05;99627.91;5078005;28;19931;-70
2020/12/13 07:51:32;;;;;;;;;;;;;;;5.35;79.93;99627.91;5076645;28;20386;-70
2020/12/13 07:54:07;;;;;;;;;;;;;;;5.50;79.61;99630.53;5071422;28;19946;-70
2020/12/13 07:56:33;;;;;;;;;;;;;;;5.46;79.54;99637.34;5056610;28;19924;-70
2020/12/13 07:59:10;;;;;;;;;;;;;;;5.39;79.75;99634.59;5055600;28;20005;-70
2020/12/13 08:01:37;;;;;;;;;;;;;;;5.27;81.25;99636.16;5075429;28;19939;-70
2020/12/13 08:04:03;;;;;;;;;;;;;;;5.37;81.04;99635.81;5040335;28;19963;-70
2020/12/13 08:06:30;;;;;;;;;;;;;;;5.59;79.27;99641.97;5073487;28;19947;-70
2020/12/13 08:08:56;;;;;;;;;;;;;;;5.64;79.11;99643.06;5090226;28;20301;-70
2020/12/13 08:11:22;;;;;;;;;;;;;;;5.69;79.13;99645.19;5056483;28;19925;-70
2020/12/13 08:13:50;;;;;;;;;;;;;;;5.87;78.42;99653.63;5053534;28;19964;-70
2020/12/13 08:16:17;;;;;;;;;;;;;;;5.98;77.82;99650.38;5089830;28;20008;-70
2020/12/13 08:18:48;;;;;;;;;;;;;;;6.01;77.74;99657.25;5075912;28;19929;-70
2020/12/13 08:21:21;;;;;;;;;;;;;;;5.97;77.49;99659.50;5055587;28;19924;-70
2020/12/13 08:23:48;;;;;;;;;;;;;;;5.99;77.56;99657.44;5053429;28;19924;-70
2020/12/13 08:26:17;;;;;;;;;;;;;;;5.99;77.41;99660.16;5054000;28;19924;-69
2020/12/13 08:28:45;;;;;;;;;;;;;;;6.01;77.63;99670.75;5057115;28;19967;-70
2020/12/13 08:31:14;;;;;;;;;;;;;;;5.98;77.29;99671.16;5088032;28;20309;-70
2020/12/13 08:33:41;;;;;;;;;;;;;;;5.99;77.68;99668.25;5057331;28;19924;-70
2020/12/13 08:36:20;;;;;;;;;;;;;;;6.02;77.68;99675.97;5033760;28;19924;-70
2020/12/13 08:38:59;;;;;;;;;;;;;;;6.03;77.72;99674.94;5080036;28;20401;-70
2020/12/13 08:41:25;;;;;;;;;;;;;;;5.98;77.68;99679.28;5087970;28;19931;-70
2020/12/13 08:43:52;;;;;;;;;;;;;;;6.08;77.16;99674.34;5056522;28;19928;-70
2020/12/13 08:46:24;;;;;;;;;;;;;;;6.13;77.07;99673.75;5066166;28;20102;-70
2020/12/13 08:48:51;;;;;;;;;;;;;;;6.15;76.73;99679.78;5076444;28;20282;-70
2020/12/13 08:51:17;;;;;;;;;;;;;;;6.16;76.87;99686.88;5095275;28;19993;-70
2020/12/13 08:53:44;;;;;;;;;;;;;;;6.26;76.87;99687.31;5076372;28;19963;-70
2020/12/13 08:56:12;;;;;;;;;;;;;;;6.27;76.52;99689.81;5093349;28;20019;-70
2020/12/13 08:58:52;;;;;;;;;;;;;;;6.38;76.36;99685.72;5103111;28;19947;-70
2020/12/13 09:01:22;;;;;;;;;;;;;;;6.49;75.58;99700.53;5093704;28;19928;-70
2020/12/13 09:03:49;;;;;;;;;;;;;;;6.50;75.27;99692.22;5056673;28;19924;-70
2020/12/13 09:06:26;;;;;;;;;;;;;;;6.53;75.44;99697.25;5092723;28;19924;-70
2020/12/13 09:08:52;;;;;;;;;;;;;;;6.58;75.15;99700.19;5076692;28;19990;-70
2020/12/13 09:11:28;;;;;;;;;;;;;;;6.61;74.95;99707.88;5072724;28;19959;-70
2020/12/13 09:13:54;;;;;;;;;;;;;;;6.63;74.89;99708.50;5069913;28;19930;-71
2020/12/13 09:16:24;;;;;;;;;;;;;;;6.58;75.24;99705.59;5078605;28;19985;-70
2020/12/13 09:19:00;;;;;;;;;;;;;;;6.61;75.03;99712.44;5093205;28;19982;-70
2020/12/13 09:21:39;;;;;;;;;;;;;;;6.65;75.63;99711.84;5055797;28;19946;-70
2020/12/13 09:24:05;;;;;;;;;;;;;;;6.60;75.15;99710.78;5051861;28;19924;-70
2020/12/13 09:26:31;;;;;;;;;;;;;;;6.63;75.58;99718.50;5072355;28;19925;-70
2020/12/13 09:28:57;;;;;;;;;;;;;;;6.65;75.25;99716.41;5082497;28;19924;-69
2020/12/13 09:31:25;;;;;;;;;;;;;;;6.67;75.81;99719.75;5092360;28;19979;-70
2020/12/13 09:33:51;;;;;;;;;;;;;;;6.67;75.22;99719.75;5059558;28;20387;-70
2020/12/13 09:36:17;;;;;;;;;;;;;;;6.73;75.71;99719.78;5072990;28;20287;-70
2020/12/13 09:38:43;;;;;;;;;;;;;;;6.81;75.86;99723.34;5093032;28;19924;-70
2020/12/13 09:41:10;;;;;;;;;;;;;;;6.91;74.75;99729.22;5094543;28;20290;-70
2020/12/13 09:43:36;;;;;;;;;;;;;;;6.99;74.58;99721.72;5057041;28;19935;-70
2020/12/13 09:46:02;;;;;;;;;;;;;;;6.99;74.47;99720.88;5059462;28;19928;-70
2020/12/13 09:48:28;;;;;;;;;;;;;;;6.97;74.52;99731.94;5070141;28;19928;-70
2020/12/13 09:50:54;;;;;;;;;;;;;;;7.00;74.41;99726.09;5087652;28;19963;-70
2020/12/13 09:53:21;;;;;;;;;;;;;;;7.02;74.92;99723.19;5091529;23;20314;-70
2020/12/13 09:55:47;;;;;;;;;;;;;;;6.99;74.65;99726.31;5054692;28;19925;-70
2020/12/13 09:58:13;;;;;;;;;;;;;;;7.03;74.62;99720.28;5072217;28;20287;-70
2020/12/13 10:00:40;;;;;;;;;;;;;;;7.07;74.62;99728.84;5066263;28;19932;-70
2020/12/13 10:03:07;;;;;;;;;;;;;;;7.14;74.60;99734.28;5070275;28;19928;-70
2020/12/13 10:05:55;;;;;;;;;;;;;;;7.14;74.52;99737.81;5058091;28;19924;-70
2020/12/13 10:11:08;;;;;;;;;;;;;;;7.07;74.94;99734.25;5057493;28;19925;-70
2020/12/13 10:13:35;;;;;;;;;;;;;;;7.05;74.97;99736.31;5019187;28;20413;-70
2020/12/13 10:16:01;;;;;;;;;;;;;;;7.06;75.31;99743.41;5070797;28;19935;-70
2020/12/13 10:18:28;;;;;;;;;;;;;;;7.09;76.90;99748.44;5037772;28;20443;-70
2020/12/13 10:20:58;;;;;;;;;;;;;;;7.04;76.94;99738.19;5069992;28;19994;-70
2020/12/13 10:23:25;;;;;;;;;;;;;;;7.02;77.30;99740.28;5068470;28;19981;-70
2020/12/13 10:25:52;;;;;;;;;;;;;;;7.06;78.61;99744.25;5050700;28;19938;-70
2020/12/13 10:28:18;;;;;;;;;;;;;;;7.00;80.00;99749.66;5061993;28;19924;-70
2020/12/13 10:30:48;;;;;;;;;;;;;;;6.89;79.48;99739.44;5051488;28;19931;-70
2020/12/13 10:33:14;;;;;;;;;;;;;;;7.14;78.24;99743.22;5050948;28;19932;-70
2020/12/13 10:35:40;;;;;;;;;;;;;;;7.25;78.11;99733.69;5065800;28;19924;-70
2020/12/13 10:38:06;;;;;;;;;;;;;;;7.25;77.81;99739.94;5050728;28;19960;-70
2020/12/13 10:40:36;;;;;;;;;;;;;;;7.45;76.37;99737.22;5047934;28;19932;-70
2020/12/13 10:43:03;;;;;;;;;;;;;;;7.65;74.45;99735.34;5060337;28;19925;-71
2020/12/13 10:45:29;;;;;;;;;;;;;;;7.71;74.18;99739.09;5055006;28;19924;-70
2020/12/13 10:47:55;;;;;;;;;;;;;;;7.69;74.16;99742.00;5066013;28;19924;-70
2020/12/13 10:50:21;;;;;;;;;;;;;;;7.65;74.23;99735.34;5061061;28;19950;-70
2020/12/13 10:52:48;;;;;;;;;;;;;;;7.68;74.12;99737.63;5071541;28;19924;-70
2020/12/13 10:55:16;;;;;;;;;;;;;;;7.73;73.94;99745.16;5070571;28;19924;-71
2020/12/13 10:57:42;;;;;;;;;;;;;;;7.69;73.94;99742.00;5070430;28;20027;-70
2020/12/13 11:00:09;;;;;;;;;;;;;;;7.58;74.11;99741.84;5069505;28;19931;-70
2020/12/13 11:02:35;;;;;;;;;;;;;;;7.67;74.72;99740.56;5069983;28;20033;-70
2020/12/13 11:05:02;;;;;;;;;;;;;;;7.77;73.93;99754.53;5036143;28;19936;-70
2020/12/13 11:07:28;;;;;;;;;;;;;;;7.84;73.41;99752.66;5051666;28;19924;-70
2020/12/13 11:09:54;;;;;;;;;;;;;;;7.92;73.35;99744.31;5041993;28;19939;-70
2020/12/13 11:12:20;;;;;;;;;;;;;;;8.13;72.34;99747.81;5065005;28;19960;-70
2020/12/13 11:14:47;;;;;;;;;;;;;;;8.37;71.49;99745.28;5033500;28;19924;-70
2020/12/13 11:17:13;;;;;;;;;;;;;;;8.39;71.19;99737.75;5055521;28;19938;-70
2020/12/13 11:19:40;;;;;;;;;;;;;;;8.48;70.91;99749.22;5052316;28;19925;-70
2020/12/13 11:22:06;;;;;;;;;;;;;;;8.40;71.31;99744.03;5062990;28;20286;-70
2020/12/13 11:24:32;;;;;;;;;;;;;;;8.53;70.70;99744.00;5036862;28;19925;-70
2020/12/13 11:27:01;;;;;;;;;;;;;;;8.90;70.14;99744.25;5070860;28;19928;-70
2020/12/13 11:29:27;;;;;;;;;;;;;;;9.57;67.37;99735.44;5051446;28;19975;-71
2020/12/13 11:31:54;;;;;;;;;;;;;;;9.69;66.76;99739.13;5053128;28;19924;-70
2020/12/13 11:34:20;;;;;;;;;;;;;;;9.60;67.16;99740.44;5053385;28;19924;-71
2020/12/13 11:36:46;;;;;;;;;;;;;;;9.74;66.66;99736.53;5069477;28;19924;-70
2020/12/13 11:39:13;;;;;;;;;;;;;;;9.61;66.04;99736.69;5053205;28;20446;-70
2020/12/13 11:41:39;;;;;;;;;;;;;;;9.31;67.56;99741.91;5070110;28;19925;-71
2020/12/13 11:44:08;;;;;;;;;;;;;;;9.01;68.64;99740.81;5071149;28;19931;-71
2020/12/13 11:46:35;;;;;;;;;;;;;;;9.00;68.99;99745.47;5071572;28;20039;-70
2020/12/13 11:49:02;;;;;;;;;;;;;;;8.92;69.00;99743.00;5017308;28;20417;-70
2020/12/13 11:51:28;;;;;;;;;;;;;;;8.96;68.96;99748.81;5069632;28;19924;-71
2020/12/13 11:53:54;;;;;;;;;;;;;;;9.01;68.85;99751.69;5070931;28;19924;-71
2020/12/13 11:56:21;;;;;;;;;;;;;;;8.87;69.79;99750.13;5070980;28;19926;-71
2020/12/13 11:58:47;;;;;;;;;;;;;;;9.07;69.24;99743.50;5037141;28;19925;-71
2020/12/13 12:01:14;;;;;;;;;;;;;;;9.13;68.88;99747.25;5065093;28;19931;-71
2020/12/13 12:03:41;;;;;;;;;;;;;;;9.18;68.42;99744.72;5082909;28;19990;-71
2020/12/13 12:06:07;;;;;;;;;;;;;;;9.21;68.30;99741.56;5074783;28;19925;-71
2020/12/13 12:08:34;;;;;;;;;;;;;;;9.00;68.59;99750.91;5053985;28;19971;-71
2020/12/13 12:11:00;;;;;;;;;;;;;;;8.94;69.51;99751.75;5055425;28;20047;-70
2020/12/13 12:13:30;;;;;;;;;;;;;;;8.96;69.48;99752.38;5053672;28;19924;-70
2020/12/13 12:15:56;;;;;;;;;;;;;;;8.91;69.86;99754.06;5068233;28;20328;-70
2020/12/13 12:18:22;;;;;;;;;;;;;;;8.70;70.14;99761.47;5036920;28;19925;-71
2020/12/13 12:20:49;;;;;;;;;;;;;;;8.69;71.11;99769.81;5063512;28;19925;-70
2020/12/13 12:23:15;;;;;;;;;;;;;;;8.72;70.71;99767.50;5055989;28;19947;-70
2020/12/13 12:25:48;;;;;;;;;;;;;;;8.51;72.19;99765.09;5073308;28;19935;-70
2020/12/13 12:28:14;;;;;;;;;;;;;;;8.54;71.39;99763.84;5036921;28;19924;-71
2020/12/13 12:30:40;;;;;;;;;;;;;;;8.71;71.12;99762.28;5030822;28;20027;-70
2020/12/13 12:33:06;;;;;;;;;;;;;;;8.84;70.85;99764.13;5057430;28;19932;-71
2020/12/13 12:35:33;;;;;;;;;;;;;;;8.83;71.01;99770.63;5060207;28;20394;-70
2020/12/13 12:37:59;;;;;;;;;;;;;;;8.73;71.06;99771.91;5053377;28;19924;-71
2020/12/13 12:40:25;;;;;;;;;;;;;;;8.71;71.39;99776.72;5066858;28;19943;-71
2020/12/13 12:42:53;;;;;;;;;;;;;;;8.48;71.80;99772.81;5074148;28;19925;-71
2020/12/13 12:45:19;;;;;;;;;;;;;;;8.23;72.71;99780.81;5037157;28;20506;-71
2020/12/13 12:47:45;;;;;;;;;;;;;;;8.15;73.51;99773.72;5070792;28;19956;-70
2020/12/13 12:50:12;;;;;;;;;;;;;;;8.05;74.00;99776.84;5056383;28;20413;-70
2020/12/13 12:52:38;;;;;;;;;;;;;;;7.86;74.45;99776.88;5056580;28;20011;-71
2020/12/13 12:55:04;;;;;;;;;;;;;;;7.83;75.28;99780.84;5053317;28;19924;-71
2020/12/13 12:57:30;;;;;;;;;;;;;;;7.83;74.99;99780.00;5039769;28;20059;-71
2020/12/13 13:02:24;;;;;;;;;;;;;;;8.11;73.63;99782.47;5073073;28;19925;-63
2020/12/13 13:04:59;;;;;;;;;;;;;;;8.01;73.99;99782.91;5068561;28;20456;-63
2020/12/13 13:07:30;;;;;;;;;;;;;;;7.93;74.45;99777.72;5058767;28;19925;-70
2020/12/13 13:12:26;;;;;;;;;;;;;;;8.04;74.32;99782.47;5068643;28;19924;-70
2020/12/13 13:14:52;;;;;;;;;;;;;;;8.07;74.51;99782.91;5065654;28;19929;-69